Columbia, South Carolina
Current Conditions -  °F | °C
As of 6:53 PM on Saturday 22 Nov 2014 (Local Time) from KCUB Reporting Station
Broken Clouds Broken Clouds  
Wind Chill: 11°   Ceiling: 6000
Heat Index: 11°   Visibility: 9mi
Dew Point:   Wind: 0mph
Humidity: 50%   Direction: NA
Pressure: 30.35"   Gusts: NA
Location:  34°N, 81.04°W
Report Text: KCUB 222353Z AUTO 00000KT 9SM BKN060 11/01 A3035 RMK AO2 SLP278 T01060006 10172 20106 56008
Loading
Personal Weather Stations






























Interactive Weather Map New forecast layout! Learn more

10-Day Weather Forecast

Advertisements
Track Severe Weather on mobile